createdAt,value
2023-01-30T00:00:44.560Z,0
2023-01-30T00:01:44.689Z,0
2023-01-30T00:02:44.497Z,0
2023-01-30T00:03:44.766Z,0
2023-01-30T00:04:44.035Z,0
2023-01-30T00:05:44.182Z,0
2023-01-30T00:06:44.426Z,0
2023-01-30T00:07:44.694Z,0
2023-01-30T00:08:44.635Z,0
2023-01-30T00:09:44.609Z,0
2023-01-30T00:10:44.342Z,0
2023-01-30T00:11:44.059Z,0
2023-01-30T00:12:44.040Z,0
2023-01-30T00:13:44.313Z,0
2023-01-30T00:14:44.000Z,0
2023-01-30T00:15:44.272Z,0
2023-01-30T00:16:44.245Z,0
2023-01-30T00:17:44.187Z,0
2023-01-30T00:18:44.401Z,0
2023-01-30T00:19:44.385Z,0
2023-01-30T00:20:44.396Z,0
2023-01-30T00:21:43.845Z,0
2023-01-30T00:23:02.815Z,0
2023-01-30T00:23:43.835Z,0
2023-01-30T00:24:45.072Z,0
2023-01-30T00:25:45.165Z,0
2023-01-30T00:26:44.666Z,0
2023-01-30T00:27:44.224Z,0
2023-01-30T00:28:43.953Z,0
2023-01-30T00:29:57.629Z,0
2023-01-30T00:30:44.291Z,0
2023-01-30T00:31:44.157Z,0
2023-01-30T00:32:43.641Z,0
2023-01-30T00:33:44.380Z,0
2023-01-30T00:34:43.581Z,0
2023-01-30T00:35:45.906Z,0
2023-01-30T00:36:43.771Z,0
2023-01-30T00:37:44.002Z,0
2023-01-30T00:38:43.731Z,0
2023-01-30T00:39:43.752Z,0
2023-01-30T00:40:43.699Z,0
2023-01-30T00:41:43.902Z,0
2023-01-30T00:42:43.113Z,0
2023-01-30T00:43:43.962Z,0
2023-01-30T00:44:43.638Z,0
2023-01-30T00:45:44.067Z,0
2023-01-30T00:46:43.550Z,0
2023-01-30T00:47:43.818Z,0
2023-01-30T00:48:43.496Z,0
2023-01-30T00:49:43.753Z,0
2023-01-30T00:50:43.720Z,0
2023-01-30T00:51:43.177Z,0
2023-01-30T00:52:43.689Z,0
2023-01-30T00:53:43.666Z,0
2023-01-30T00:54:43.102Z,0
2023-01-30T00:55:43.374Z,0
2023-01-30T00:56:43.359Z,0
2023-01-30T00:57:43.066Z,0
2023-01-30T00:58:43.026Z,0
2023-01-30T00:59:43.038Z,0
2023-01-30T01:00:43.006Z,0
2023-01-30T01:01:43.756Z,0
2023-01-30T01:02:43.600Z,0
2023-01-30T01:03:43.452Z,0
2023-01-30T01:04:43.611Z,0
2023-01-30T01:05:43.373Z,0
2023-01-30T01:06:43.104Z,0
2023-01-30T01:07:43.332Z,0
2023-01-30T01:08:43.050Z,0
2023-01-30T01:09:43.277Z,0
2023-01-30T01:10:43.307Z,0
2023-01-30T01:11:43.053Z,0
2023-01-30T01:12:42.970Z,0
2023-01-30T01:13:42.946Z,0
2023-01-30T01:14:43.672Z,0
2023-01-30T01:15:42.941Z,0
2023-01-30T01:16:43.464Z,0
2023-01-30T01:17:43.124Z,0
2023-01-30T01:18:43.147Z,0
2023-01-30T01:19:42.827Z,0
2023-01-30T01:20:43.054Z,0
2023-01-30T01:21:42.817Z,0
2023-01-30T01:22:42.760Z,0
2023-01-30T01:23:43.086Z,0
2023-01-30T01:24:42.714Z,0
2023-01-30T01:25:42.944Z,0
2023-01-30T01:26:43.000Z,0
2023-01-30T01:27:42.385Z,0
2023-01-30T01:28:42.869Z,0
2023-01-30T01:29:42.869Z,0
2023-01-30T01:30:42.393Z,0
2023-01-30T01:31:43.276Z,0
2023-01-30T01:32:42.791Z,0
2023-01-30T01:33:42.278Z,0
2023-01-30T01:35:14.437Z,0
2023-01-30T01:35:42.468Z,0
2023-01-30T01:37:00.199Z,0
2023-01-30T01:37:42.292Z,0
2023-01-30T01:38:42.168Z,0
2023-01-30T01:39:42.659Z,0
2023-01-30T01:40:42.609Z,0
2023-01-30T01:41:42.089Z,0
2023-01-30T01:42:42.066Z,0
2023-01-30T01:43:42.024Z,0
2023-01-30T01:44:42.253Z,0
2023-01-30T01:45:42.098Z,0
2023-01-30T01:46:42.469Z,0
2023-01-30T01:47:42.456Z,0
2023-01-30T01:48:42.499Z,0
2023-01-30T01:49:42.179Z,0
2023-01-30T01:50:42.301Z,0
2023-01-30T01:51:42.531Z,0
2023-01-30T01:52:42.452Z,0
2023-01-30T01:53:42.474Z,0
2023-01-30T01:54:42.209Z,0
2023-01-30T01:55:42.431Z,0
2023-01-30T01:56:42.474Z,0
2023-01-30T01:57:41.863Z,0
2023-01-30T01:58:42.374Z,0
2023-01-30T01:59:42.066Z,0
2023-01-30T02:00:42.320Z,0
2023-01-30T02:01:42.287Z,0
2023-01-30T02:02:42.686Z,0
2023-01-30T02:03:41.727Z,0
2023-01-30T02:04:41.958Z,0
2023-01-30T02:05:41.927Z,0
2023-01-30T02:06:41.897Z,0
2023-01-30T02:07:41.421Z,0
2023-01-30T02:08:41.894Z,0
2023-01-30T02:09:42.107Z,0
2023-01-30T02:10:42.059Z,0
2023-01-30T02:11:42.100Z,0
2023-01-30T02:12:41.839Z,0
2023-01-30T02:13:42.106Z,0
2023-01-30T02:14:41.817Z,0
2023-01-30T02:15:42.010Z,0
2023-01-30T02:16:41.997Z,0
2023-01-30T02:17:42.036Z,0
2023-01-30T02:18:41.697Z,0
2023-01-30T02:19:41.941Z,0
2023-01-30T02:20:41.704Z,0
2023-01-30T02:21:41.661Z,0
2023-01-30T02:22:41.603Z,0
2023-01-30T02:23:41.531Z,0
2023-01-30T02:24:41.813Z,0
2023-01-30T02:25:41.345Z,0
2023-01-30T02:26:41.525Z,0
2023-01-30T02:27:41.236Z,0
2023-01-30T02:28:41.765Z,0
2023-01-30T02:29:41.794Z,0
2023-01-30T02:30:41.720Z,0
2023-01-30T02:31:41.933Z,0
2023-01-30T02:32:41.699Z,0
2023-01-30T02:33:41.132Z,0
2023-01-30T02:34:41.343Z,0
2023-01-30T02:35:41.049Z,0
2023-01-30T02:36:41.299Z,0
2023-01-30T02:37:41.257Z,0
2023-01-30T02:38:40.987Z,0
2023-01-30T02:39:41.492Z,0
2023-01-30T02:40:40.985Z,0
2023-01-30T02:41:41.265Z,0
2023-01-30T02:42:41.190Z,0
2023-01-30T02:43:41.280Z,0
2023-01-30T02:44:41.104Z,0
2023-01-30T02:45:41.492Z,0
2023-01-30T02:46:40.886Z,0
2023-01-30T02:47:40.807Z,0
2023-01-30T02:48:41.365Z,0
2023-01-30T02:49:40.758Z,0
2023-01-30T02:50:41.005Z,0
2023-01-30T02:51:40.957Z,0
2023-01-30T02:52:40.887Z,0
2023-01-30T02:53:41.323Z,0
2023-01-30T02:54:41.787Z,0
2023-01-30T02:55:41.787Z,0
2023-01-30T02:56:41.721Z,0
2023-01-30T02:57:41.966Z,0
2023-01-30T02:58:41.689Z,0
2023-01-30T02:59:41.954Z,0
2023-01-30T03:00:41.897Z,0
2023-01-30T03:01:42.160Z,0
2023-01-30T03:02:42.163Z,0
2023-01-30T03:03:41.857Z,0
2023-01-30T03:04:41.565Z,0
2023-01-30T03:05:41.723Z,0
2023-01-30T03:06:41.788Z,0
2023-01-30T03:07:41.306Z,0
2023-01-30T03:08:41.782Z,0
2023-01-30T03:09:41.842Z,0
2023-01-30T03:10:42.261Z,0
2023-01-30T03:11:41.794Z,0
2023-01-30T03:12:41.420Z,0
2023-01-30T03:13:41.953Z,0
2023-01-30T03:14:41.345Z,0
2023-01-30T03:15:41.821Z,0
2023-01-30T03:16:41.825Z,0
2023-01-30T03:17:41.782Z,0
2023-01-30T03:18:42.034Z,0
2023-01-30T03:19:41.989Z,0
2023-01-30T03:20:41.743Z,0
2023-01-30T03:21:41.715Z,0
2023-01-30T03:22:41.866Z,0
2023-01-30T03:23:41.949Z,0
2023-01-30T03:24:42.096Z,0
2023-01-30T03:25:41.878Z,0
2023-01-30T03:26:42.174Z,0
2023-01-30T03:27:41.064Z,0
2023-01-30T03:28:41.795Z,0
2023-01-30T03:29:41.767Z,0
2023-01-30T03:30:41.905Z,0
2023-01-30T03:31:42.124Z,0
2023-01-30T03:32:41.232Z,0
2023-01-30T03:50:06.657Z,0
2023-01-30T03:51:06.033Z,0
2023-01-30T03:52:06.535Z,0
2023-01-30T03:53:06.476Z,0
2023-01-30T03:54:06.227Z,0
2023-01-30T03:55:05.921Z,0
2023-01-30T03:56:06.298Z,0
2023-01-30T03:57:06.145Z,0
2023-01-30T03:58:06.432Z,0
2023-01-30T03:59:06.423Z,0
2023-01-30T04:00:06.377Z,0
2023-01-30T04:01:06.510Z,0
2023-01-30T04:02:06.145Z,0
2023-01-30T04:03:05.828Z,0
2023-01-30T04:04:05.988Z,0
2023-01-30T04:05:06.082Z,0
2023-01-30T04:06:06.285Z,0
2023-01-30T04:07:05.903Z,0
2023-01-30T04:08:05.935Z,0
2023-01-30T04:09:05.914Z,0
2023-01-30T04:10:05.596Z,0
2023-01-30T04:11:05.805Z,0
2023-01-30T04:12:06.070Z,0
2023-01-30T04:13:05.813Z,0
2023-01-30T04:14:05.750Z,0
2023-01-30T04:15:05.759Z,0
2023-01-30T04:16:05.715Z,0
2023-01-30T04:17:06.096Z,0
2023-01-30T04:18:05.415Z,0
2023-01-30T04:19:05.904Z,0
2023-01-30T04:20:05.670Z,0
2023-01-30T04:21:05.606Z,0
2023-01-30T04:22:05.968Z,0
2023-01-30T04:23:05.621Z,0
2023-01-30T04:24:05.792Z,0
2023-01-30T04:25:05.824Z,0
2023-01-30T04:26:05.328Z,0
2023-01-30T04:27:05.201Z,0
2023-01-30T04:28:05.510Z,0
2023-01-30T04:29:05.499Z,0
2023-01-30T04:30:05.672Z,0
2023-01-30T04:31:06.006Z,0
2023-01-30T04:32:05.102Z,0
2023-01-30T04:33:05.441Z,0
2023-01-30T04:34:05.317Z,0
2023-01-30T04:35:05.289Z,0
2023-01-30T04:36:05.298Z,0
2023-01-30T04:37:05.501Z,0
2023-01-30T04:38:05.597Z,0
2023-01-30T04:39:05.520Z,0
2023-01-30T04:40:05.243Z,0
2023-01-30T04:41:05.518Z,0
2023-01-30T04:42:04.881Z,0
2023-01-30T04:43:05.132Z,0
2023-01-30T04:44:05.388Z,0
2023-01-30T04:45:05.183Z,0
2023-01-30T04:46:04.850Z,0
2023-01-30T04:47:05.415Z,0
2023-01-30T04:48:05.094Z,0
2023-01-30T04:49:05.245Z,0
2023-01-30T04:50:05.247Z,0
2023-01-30T04:51:04.963Z,0
2023-01-30T04:52:05.192Z,0
2023-01-30T04:53:05.175Z,0
2023-01-30T04:54:05.236Z,0
2023-01-30T04:55:05.266Z,0
2023-01-30T04:56:04.851Z,0
2023-01-30T04:57:04.827Z,0
2023-01-30T04:58:04.529Z,0
2023-01-30T04:59:04.773Z,0
2023-01-30T05:00:04.528Z,0
2023-01-30T05:01:05.284Z,0
2023-01-30T05:02:05.242Z,0
2023-01-30T05:03:04.960Z,0
2023-01-30T05:04:04.447Z,0
2023-01-30T05:05:04.691Z,0
2023-01-30T05:06:04.614Z,0
2023-01-30T05:07:04.897Z,0
2023-01-30T05:08:04.851Z,0
2023-01-30T05:09:04.550Z,0
2023-01-30T05:10:04.917Z,0
2023-01-30T05:11:04.252Z,0
2023-01-30T05:12:04.510Z,0
2023-01-30T05:13:04.479Z,0
2023-01-30T05:14:04.649Z,0
2023-01-30T05:15:04.786Z,0
2023-01-30T05:16:04.674Z,0
2023-01-30T05:17:04.919Z,0
2023-01-30T05:18:04.372Z,0
2023-01-30T05:19:04.147Z,0
2023-01-30T05:20:04.068Z,0
2023-01-30T05:21:04.297Z,0
2023-01-30T05:22:04.548Z,0
2023-01-30T05:23:04.494Z,0
2023-01-30T05:24:04.515Z,0
2023-01-30T05:25:04.522Z,0
2023-01-30T05:26:04.550Z,0
2023-01-30T05:27:04.179Z,0
2023-01-30T05:28:04.170Z,0
2023-01-30T05:29:04.451Z,0
2023-01-30T05:30:04.127Z,0
2023-01-30T05:31:04.436Z,0
2023-01-30T05:32:03.813Z,0
2023-01-30T05:33:04.065Z,0
2023-01-30T05:34:04.032Z,0
2023-01-30T05:35:03.768Z,0
2023-01-30T05:36:04.258Z,0
2023-01-30T05:37:04.217Z,0
2023-01-30T05:38:05.100Z,0
2023-01-30T05:39:04.184Z,0
2023-01-30T05:40:03.910Z,0
2023-01-30T05:41:03.664Z,0
2023-01-30T05:42:04.207Z,0
2023-01-30T05:43:04.087Z,0
2023-01-30T05:44:04.104Z,0
2023-01-30T05:45:03.800Z,0
2023-01-30T05:46:03.556Z,0
2023-01-30T05:47:03.830Z,0
2023-01-30T05:48:08.148Z,0
2023-01-30T05:49:04.185Z,0
2023-01-30T05:50:03.437Z,0
2023-01-30T05:51:03.945Z,0
2023-01-30T05:52:03.652Z,0
2023-01-30T05:53:03.627Z,0
2023-01-30T05:54:03.389Z,0
2023-01-30T05:55:03.576Z,0
2023-01-30T05:56:03.872Z,0
2023-01-30T05:57:03.811Z,0
2023-01-30T05:58:03.917Z,0
2023-01-30T05:59:03.562Z,0
2023-01-30T06:00:03.502Z,0
2023-01-30T06:01:03.644Z,0
2023-01-30T06:02:03.423Z,0
2023-01-30T06:03:03.921Z,0
2023-01-30T06:04:03.965Z,0
2023-01-30T06:05:03.136Z,0
2023-01-30T06:06:03.363Z,0
2023-01-30T06:07:03.582Z,0
2023-01-30T06:08:03.563Z,0
2023-01-30T06:09:03.375Z,0
2023-01-30T06:10:03.521Z,0
2023-01-30T06:11:03.299Z,0
2023-01-30T06:12:03.500Z,0
2023-01-30T06:13:03.200Z,0
2023-01-30T06:14:03.551Z,0
2023-01-30T06:15:02.905Z,0
2023-01-30T06:16:03.286Z,0
2023-01-30T06:17:03.455Z,0
2023-01-30T06:18:03.359Z,0
2023-01-30T06:19:03.073Z,0
2023-01-30T06:20:02.860Z,0
2023-01-30T06:21:02.785Z,0
2023-01-30T06:22:03.011Z,4
2023-01-30T06:23:02.979Z,4
2023-01-30T06:24:02.713Z,4
2023-01-30T06:25:03.235Z,4
2023-01-30T06:26:08.098Z,4
2023-01-30T06:27:03.182Z,8
2023-01-30T06:28:03.152Z,4
2023-01-30T06:29:03.115Z,8
2023-01-30T06:30:03.191Z,8
2023-01-30T06:31:03.699Z,12
2023-01-30T06:32:03.076Z,12
2023-01-30T06:33:02.518Z,12
2023-01-30T06:34:03.020Z,12
2023-01-30T06:35:02.981Z,16
2023-01-30T06:36:03.074Z,20
2023-01-30T06:37:02.986Z,20
2023-01-30T06:38:02.943Z,20
2023-01-30T06:39:03.013Z,24
2023-01-30T06:40:02.807Z,28
2023-01-30T06:41:03.007Z,28
2023-01-30T06:42:02.940Z,32
2023-01-30T06:43:02.663Z,40
2023-01-30T06:44:02.653Z,44
2023-01-30T06:45:02.909Z,48
2023-01-30T06:46:03.284Z,48
2023-01-30T06:47:02.618Z,56
2023-01-30T06:48:02.869Z,56
2023-01-30T06:49:02.801Z,68
2023-01-30T06:50:02.562Z,72
2023-01-30T06:51:02.253Z,76
2023-01-30T06:52:02.732Z,84
2023-01-30T06:53:02.495Z,88
2023-01-30T06:54:02.455Z,108
2023-01-30T06:55:02.188Z,124
2023-01-30T06:56:02.642Z,132
2023-01-30T06:57:02.637Z,144
2023-01-30T06:58:02.609Z,140
2023-01-30T06:59:02.406Z,136
2023-01-30T07:00:02.356Z,136
2023-01-30T07:01:03.340Z,136
2023-01-30T07:02:03.833Z,144
2023-01-30T07:03:02.707Z,148
2023-01-30T07:04:03.561Z,152
2023-01-30T07:05:02.935Z,148
2023-01-30T07:06:03.455Z,148
2023-01-30T07:07:03.409Z,148
2023-01-30T07:08:03.357Z,152
2023-01-30T07:09:03.167Z,160
2023-01-30T07:10:14.781Z,160
2023-01-30T07:11:03.356Z,160
2023-01-30T07:12:03.053Z,172
2023-01-30T07:13:03.023Z,192
2023-01-30T07:14:02.649Z,192
2023-01-30T07:15:03.157Z,216
2023-01-30T07:16:03.442Z,224
2023-01-30T07:17:03.420Z,228
2023-01-30T07:18:03.473Z,244
2023-01-30T07:19:03.373Z,264
2023-01-30T07:20:03.297Z,276
2023-01-30T07:21:02.777Z,304
2023-01-30T07:22:05.654Z,356
2023-01-30T07:23:03.057Z,360
2023-01-30T07:24:02.964Z,344
2023-01-30T07:25:02.687Z,364
2023-01-30T07:26:02.915Z,432
2023-01-30T07:27:02.897Z,420
2023-01-30T07:28:02.929Z,452
2023-01-30T07:29:03.225Z,444
2023-01-30T07:30:03.099Z,408
2023-01-30T07:31:03.454Z,400
2023-01-30T07:32:02.835Z,444
2023-01-30T07:33:02.811Z,544
2023-01-30T07:34:03.114Z,544
2023-01-30T07:35:04.907Z,588
2023-01-30T07:36:02.705Z,564
2023-01-30T07:37:02.980Z,584
2023-01-30T07:38:02.707Z,688
2023-01-30T07:39:02.665Z,704
2023-01-30T07:40:02.753Z,704
2023-01-30T07:41:02.857Z,704
2023-01-30T07:42:04.033Z,684
2023-01-30T07:43:02.587Z,644
2023-01-30T07:44:02.830Z,664
2023-01-30T07:45:02.539Z,728
2023-01-30T07:46:02.879Z,688
2023-01-30T07:47:03.365Z,640
2023-01-30T07:48:03.253Z,640
2023-01-30T07:49:06.819Z,616
2023-01-30T07:50:03.007Z,656
2023-01-30T07:51:03.452Z,700
2023-01-30T07:52:03.438Z,688
2023-01-30T07:53:02.905Z,684
2023-01-30T07:54:03.450Z,728
2023-01-30T07:55:06.047Z,780
2023-01-30T07:56:03.367Z,944
2023-01-30T07:57:02.832Z,880
2023-01-30T07:58:03.308Z,856
2023-01-30T07:59:03.048Z,956
2023-01-30T08:00:03.307Z,1004
2023-01-30T08:01:03.450Z,956
2023-01-30T08:02:03.237Z,980
2023-01-30T08:03:03.218Z,1232
2023-01-30T08:04:02.935Z,1436
2023-01-30T08:05:05.892Z,1392
2023-01-30T08:06:02.669Z,1344
2023-01-30T08:07:02.883Z,1372
2023-01-30T08:08:02.603Z,1364
2023-01-30T08:09:03.086Z,1500
2023-01-30T08:10:03.139Z,1580
2023-01-30T08:11:02.794Z,1632
2023-01-30T08:12:02.793Z,1660
2023-01-30T08:13:02.767Z,1752
2023-01-30T08:14:02.748Z,1960
2023-01-30T08:15:02.987Z,1944
2023-01-30T08:16:02.722Z,1804
2023-01-30T08:17:02.947Z,1744
2023-01-30T08:18:02.174Z,1564
2023-01-30T08:19:02.670Z,1660
2023-01-30T08:20:02.864Z,1576
2023-01-30T08:21:02.964Z,1592
2023-01-30T08:22:02.840Z,1636
2023-01-30T08:23:02.804Z,1680
2023-01-30T08:24:04.823Z,1852
2023-01-30T08:25:02.996Z,1996
2023-01-30T08:26:02.730Z,1920
2023-01-30T08:27:02.739Z,1624
2023-01-30T08:28:02.440Z,1556
2023-01-30T08:29:02.411Z,1296
2023-01-30T08:30:02.653Z,1132
2023-01-30T08:31:03.222Z,1180
2023-01-30T08:32:02.631Z,1308
2023-01-30T08:33:02.340Z,1316
2023-01-30T08:34:02.586Z,1320
2023-01-30T08:35:02.281Z,1520
2023-01-30T08:36:02.288Z,1572
2023-01-30T08:37:02.582Z,1744
2023-01-30T08:38:02.548Z,2020
2023-01-30T08:39:02.495Z,2264
2023-01-30T08:40:02.539Z,2380
2023-01-30T08:41:02.181Z,2272
2023-01-30T08:42:02.166Z,1964
2023-01-30T08:43:02.134Z,1724
2023-01-30T08:44:02.459Z,1520
2023-01-30T08:45:02.112Z,1416
2023-01-30T08:46:02.501Z,1448
2023-01-30T08:47:02.042Z,1672
2023-01-30T08:48:02.050Z,1900
2023-01-30T08:49:02.007Z,1940
2023-01-30T08:50:02.328Z,1756
2023-01-30T08:51:02.007Z,1632
2023-01-30T08:52:01.709Z,1568
2023-01-30T08:53:02.010Z,1652
2023-01-30T08:54:02.227Z,1652
2023-01-30T08:55:01.635Z,1692
2023-01-30T08:56:02.129Z,1640
2023-01-30T08:57:01.856Z,1440
2023-01-30T08:58:02.090Z,1288
2023-01-30T08:59:01.586Z,1204
2023-01-30T09:00:01.841Z,1244
2023-01-30T09:01:02.334Z,1560
2023-01-30T09:02:01.494Z,1748
2023-01-30T09:03:01.732Z,1908
2023-01-30T09:04:01.970Z,2072
2023-01-30T09:05:01.687Z,2048
2023-01-30T09:06:01.943Z,1876
2023-01-30T09:07:01.921Z,1884
2023-01-30T09:08:01.876Z,1776
2023-01-30T09:09:02.961Z,1792
2023-01-30T09:10:02.669Z,1884
2023-01-30T09:11:02.369Z,1900
2023-01-30T09:12:02.353Z,1856
2023-01-30T09:13:02.355Z,1744
2023-01-30T09:14:02.059Z,1784
2023-01-30T09:15:02.580Z,1900
2023-01-30T09:16:02.261Z,2052
2023-01-30T09:17:02.590Z,2052
2023-01-30T09:18:02.500Z,1944
2023-01-30T09:19:02.379Z,2012
2023-01-30T09:20:02.452Z,2304
2023-01-30T09:21:02.431Z,2648
2023-01-30T09:22:02.147Z,3184
2023-01-30T09:23:02.126Z,3620
2023-01-30T09:24:02.090Z,3436
2023-01-30T09:25:02.411Z,3056
2023-01-30T09:26:02.353Z,3040
2023-01-30T09:27:02.084Z,2856
2023-01-30T09:28:02.324Z,2688
2023-01-30T09:29:01.741Z,2800
2023-01-30T09:30:02.296Z,2924
2023-01-30T09:31:03.512Z,2920
2023-01-30T09:32:02.928Z,2912
2023-01-30T09:33:02.406Z,2796
2023-01-30T09:34:02.679Z,2716
2023-01-30T09:35:02.869Z,2848
2023-01-30T09:36:02.601Z,3120
2023-01-30T09:37:04.652Z,3332
2023-01-30T09:38:02.569Z,3460
2023-01-30T09:39:02.843Z,3916
2023-01-30T09:40:02.521Z,5104
2023-01-30T09:41:02.556Z,5708
2023-01-30T09:42:02.502Z,5604
2023-01-30T09:43:02.737Z,4696
2023-01-30T09:44:02.704Z,4148
2023-01-30T09:45:02.655Z,4232
2023-01-30T09:46:02.937Z,4252
2023-01-30T09:47:02.624Z,3636
2023-01-30T09:48:06.632Z,3400
2023-01-30T09:49:02.498Z,2976
2023-01-30T09:50:02.459Z,2816
2023-01-30T09:51:04.345Z,3532
2023-01-30T09:52:02.031Z,4016
2023-01-30T09:53:02.033Z,3896
2023-01-30T09:54:05.170Z,3532
2023-01-30T09:55:02.224Z,3328
2023-01-30T09:56:02.454Z,3172
2023-01-30T09:57:02.250Z,2972
2023-01-30T09:58:02.442Z,2972
2023-01-30T09:59:02.284Z,2852
2023-01-30T10:00:02.199Z,2800
2023-01-30T10:01:02.359Z,2800
2023-01-30T10:02:02.093Z,2900
2023-01-30T10:03:02.123Z,2936
2023-01-30T10:04:02.293Z,3128
2023-01-30T10:05:09.289Z,2968
2023-01-30T10:06:02.336Z,2788
2023-01-30T10:07:01.768Z,3084
2023-01-30T10:08:02.458Z,3484
2023-01-30T10:09:01.951Z,3588
2023-01-30T10:10:01.949Z,3340
2023-01-30T10:11:15.992Z,2804
2023-01-30T10:12:02.177Z,2632
2023-01-30T10:13:02.001Z,2768
2023-01-30T10:14:01.861Z,2908
2023-01-30T10:15:01.335Z,3092
2023-01-30T10:16:02.030Z,3528
2023-01-30T10:17:02.064Z,4756
2023-01-30T10:18:01.642Z,5560
2023-01-30T10:19:01.818Z,5952
2023-01-30T10:20:01.747Z,8756
2023-01-30T10:21:04.697Z,7272
2023-01-30T10:22:01.197Z,8356
2023-01-30T10:23:01.929Z,9348
2023-01-30T10:24:01.630Z,8768
2023-01-30T10:25:01.620Z,7824
2023-01-30T10:26:01.863Z,8828
2023-01-30T10:27:03.005Z,10124
2023-01-30T10:28:01.562Z,12220
2023-01-30T10:29:13.923Z,11168
2023-01-30T10:30:01.711Z,9844
2023-01-30T10:31:02.385Z,7304
2023-01-30T10:32:01.780Z,6620
2023-01-30T10:33:02.472Z,6672
2023-01-30T10:34:02.691Z,7368
2023-01-30T10:35:02.682Z,8560
2023-01-30T10:36:02.408Z,10804
2023-01-30T10:37:02.101Z,10156
2023-01-30T10:38:02.116Z,8888
2023-01-30T10:39:02.578Z,8240
2023-01-30T10:40:02.893Z,7240
2023-01-30T10:41:02.019Z,6180
2023-01-30T10:42:02.006Z,5352
2023-01-30T10:43:02.528Z,4612
2023-01-30T10:44:02.257Z,4624
2023-01-30T10:45:02.563Z,4252
2023-01-30T10:46:02.287Z,4612
2023-01-30T10:47:02.978Z,4824
2023-01-30T10:48:03.709Z,4012
2023-01-30T10:49:02.292Z,4080
2023-01-30T10:50:02.237Z,4104
2023-01-30T10:51:02.353Z,4516
2023-01-30T10:52:02.587Z,5156
2023-01-30T10:53:02.860Z,5140
2023-01-30T10:54:02.833Z,4864
2023-01-30T10:55:02.548Z,4236
2023-01-30T10:56:02.787Z,3628
2023-01-30T10:57:03.044Z,3556
2023-01-30T10:58:02.474Z,3408
2023-01-30T10:59:02.447Z,3804
2023-01-30T11:00:02.948Z,3644
2023-01-30T11:01:03.011Z,3116
2023-01-30T11:02:03.189Z,3232
2023-01-30T11:03:02.964Z,3652
2023-01-30T11:04:02.384Z,3884
2023-01-30T11:05:02.864Z,3780
2023-01-30T11:06:02.585Z,3500
2023-01-30T11:07:02.838Z,3444
2023-01-30T11:08:02.808Z,3120
2023-01-30T11:09:02.313Z,3012
2023-01-30T11:10:02.568Z,3076
2023-01-30T11:11:02.497Z,3492
2023-01-30T11:12:02.496Z,3848
2023-01-30T11:13:01.990Z,3672
2023-01-30T11:14:02.153Z,3648
2023-01-30T11:15:02.231Z,3240
2023-01-30T11:16:02.525Z,3000
2023-01-30T11:17:02.725Z,3196
2023-01-30T11:19:22.071Z,3364
2023-01-30T11:19:32.436Z,3308
2023-01-30T11:20:32.439Z,3044
2023-01-30T11:21:49.382Z,2724
2023-01-30T11:22:32.370Z,2644
2023-01-30T11:23:32.370Z,2556
2023-01-30T11:24:32.368Z,2768
2023-01-30T11:25:32.377Z,2988
2023-01-30T11:26:51.527Z,3084
2023-01-30T11:27:32.291Z,3356
2023-01-30T11:28:32.113Z,3316
2023-01-30T11:29:31.748Z,3172
2023-01-30T11:30:31.984Z,3064
2023-01-30T11:31:48.121Z,3060
2023-01-30T11:32:32.379Z,2916
2023-01-30T11:33:31.929Z,3100
2023-01-30T11:34:32.184Z,3132
2023-01-30T11:35:32.168Z,3340
2023-01-30T11:36:31.846Z,4044
2023-01-30T11:37:32.104Z,4180
2023-01-30T11:38:31.577Z,4124
2023-01-30T11:39:32.092Z,3780
2023-01-30T11:40:32.047Z,3724
2023-01-30T11:41:32.040Z,3452
2023-01-30T11:42:31.980Z,2956
2023-01-30T11:43:31.995Z,2824
2023-01-30T11:44:31.447Z,3016
2023-01-30T11:45:31.492Z,3132
2023-01-30T11:46:31.907Z,2828
2023-01-30T11:47:34.215Z,2692
2023-01-30T11:50:24.679Z,2548
2023-01-30T11:50:55.840Z,2584
2023-01-30T11:51:41.285Z,2736
2023-01-30T11:52:41.578Z,2684
2023-01-30T11:53:41.560Z,2580
2023-01-30T11:54:41.715Z,2888
2023-01-30T11:55:49.893Z,2592
2023-01-30T11:56:41.691Z,2600
2023-01-30T11:57:41.444Z,3004
2023-01-30T11:58:41.617Z,2996
2023-01-30T11:59:40.846Z,3060
2023-01-30T12:00:41.353Z,3584
2023-01-30T12:01:41.687Z,3528
2023-01-30T12:02:41.117Z,3700
2023-01-30T12:03:41.644Z,3344
2023-01-30T12:04:41.291Z,3088
2023-01-30T12:05:41.533Z,4012
2023-01-30T12:06:41.238Z,3528
2023-01-30T12:07:41.456Z,3720
2023-01-30T12:08:49.080Z,3828
2023-01-30T12:09:43.671Z,4172
2023-01-30T12:10:41.397Z,3508
2023-01-30T12:11:40.879Z,3452
2023-01-30T12:12:41.160Z,3852
2023-01-30T12:13:41.095Z,3916
2023-01-30T12:14:41.348Z,3620
2023-01-30T12:15:41.042Z,3852
2023-01-30T12:16:41.184Z,4240
2023-01-30T12:17:41.258Z,4288
2023-01-30T12:18:41.280Z,3832
2023-01-30T12:19:40.981Z,3044
2023-01-30T12:20:41.234Z,3356
2023-01-30T12:21:40.923Z,3376
2023-01-30T12:22:40.925Z,3004
2023-01-30T12:23:40.900Z,2580
2023-01-30T12:24:40.599Z,2664
2023-01-30T12:25:40.377Z,3000
2023-01-30T12:26:41.211Z,3372
2023-01-30T12:27:40.293Z,3364
2023-01-30T12:28:41.054Z,2496
2023-01-30T12:29:43.329Z,2488
2023-01-30T12:30:41.202Z,2304
2023-01-30T12:31:40.743Z,2288
2023-01-30T12:32:40.694Z,2676
2023-01-30T12:33:40.723Z,3208
2023-01-30T12:34:40.788Z,3344
2023-01-30T12:35:42.313Z,3168
2023-01-30T12:36:40.678Z,2952
2023-01-30T12:37:40.882Z,2864
2023-01-30T12:38:40.643Z,2996
2023-01-30T12:39:40.910Z,3032
2023-01-30T12:40:40.566Z,3792
2023-01-30T12:41:40.807Z,4036
2023-01-30T12:42:40.397Z,4904
2023-01-30T12:43:40.793Z,5964
2023-01-30T12:44:40.746Z,6500
2023-01-30T12:45:40.519Z,6504
2023-01-30T12:46:41.318Z,5896
2023-01-30T12:47:41.005Z,5420
2023-01-30T12:49:11.956Z,4996
2023-01-30T12:49:40.968Z,5908
2023-01-30T12:50:40.978Z,5944
2023-01-30T12:51:40.925Z,7504
2023-01-30T12:52:40.967Z,8192
2023-01-30T12:53:40.896Z,7604
2023-01-30T12:54:41.161Z,7896
2023-01-30T12:55:40.885Z,7136
2023-01-30T12:56:40.988Z,6152
2023-01-30T12:57:41.116Z,6004
2023-01-30T12:58:40.826Z,5648
2023-01-30T12:59:40.783Z,5924
2023-01-30T13:00:40.512Z,6456
2023-01-30T13:01:41.161Z,6592
2023-01-30T13:02:40.816Z,6072
2023-01-30T13:03:40.226Z,5500
2023-01-30T13:05:05.036Z,5312
2023-01-30T13:05:40.656Z,5348
2023-01-30T13:06:41.044Z,4364
2023-01-30T13:07:41.822Z,4124
2023-01-30T13:08:41.829Z,3872
2023-01-30T13:09:41.257Z,3376
2023-01-30T13:10:41.545Z,2904
2023-01-30T13:11:41.736Z,2516
2023-01-30T13:12:41.733Z,2260
2023-01-30T13:13:41.442Z,2348
2023-01-30T13:14:41.187Z,2728
2023-01-30T13:15:41.703Z,2880
2023-01-30T13:16:41.567Z,2972
2023-01-30T13:17:41.387Z,2856
2023-01-30T13:18:41.671Z,2764
2023-01-30T13:19:48.168Z,2664
2023-01-30T13:20:41.596Z,2660
2023-01-30T13:21:41.353Z,2684
2023-01-30T13:22:41.580Z,2520
2023-01-30T13:23:41.260Z,3068
2023-01-30T13:24:41.534Z,2960
2023-01-30T13:25:40.729Z,2740
2023-01-30T13:26:41.814Z,2912
2023-01-30T13:27:40.916Z,2912
2023-01-30T13:28:41.510Z,3168
2023-01-30T13:29:41.417Z,4760
2023-01-30T13:30:41.113Z,5136
2023-01-30T13:31:41.763Z,4928
2023-01-30T13:32:40.889Z,4676
2023-01-30T13:33:40.576Z,3480
2023-01-30T13:34:41.355Z,2804
2023-01-30T13:35:41.036Z,3004
2023-01-30T13:36:41.258Z,3452
2023-01-30T13:37:40.737Z,2636
2023-01-30T13:38:41.263Z,2356
2023-01-30T13:39:47.292Z,2872
2023-01-30T13:40:40.931Z,3312
2023-01-30T13:41:41.308Z,3156
2023-01-30T13:42:41.440Z,2368
2023-01-30T13:43:41.967Z,2500
2023-01-30T13:44:44.123Z,3032
2023-01-30T13:45:41.100Z,2760
2023-01-30T13:46:41.217Z,2816
2023-01-30T13:47:41.051Z,2868
2023-01-30T13:48:40.853Z,2316
2023-01-30T13:49:40.498Z,1820
2023-01-30T13:50:40.785Z,2060
2023-01-30T13:51:40.973Z,2392
2023-01-30T13:52:41.064Z,2208
2023-01-30T13:53:40.935Z,2212
2023-01-30T13:54:40.746Z,2536
2023-01-30T13:55:40.920Z,2224
2023-01-30T13:56:48.922Z,1528
2023-01-30T13:57:40.287Z,1760
2023-01-30T13:58:40.859Z,2716
2023-01-30T13:59:40.336Z,3368
2023-01-30T14:00:41.091Z,3220
2023-01-30T14:01:40.489Z,2384
2023-01-30T14:02:40.813Z,2280
2023-01-30T14:03:40.757Z,2888
2023-01-30T14:04:40.494Z,2980
2023-01-30T14:05:53.532Z,3452
2023-01-30T14:06:40.798Z,4068
2023-01-30T14:07:40.693Z,4264
2023-01-30T14:08:40.675Z,3984
2023-01-30T14:09:40.368Z,4092
2023-01-30T14:10:40.668Z,4120
2023-01-30T14:11:41.042Z,4048
2023-01-30T14:12:40.505Z,3800
2023-01-30T14:13:40.296Z,3396
2023-01-30T14:14:40.280Z,2968
2023-01-30T14:15:40.243Z,2584
2023-01-30T14:16:40.648Z,2136
2023-01-30T14:17:40.214Z,1976